createdAt,value
2023-04-13T00:00:21.780Z,27.80
2023-04-13T00:01:45.942Z,29.60
2023-04-13T00:02:54.188Z,26.60
2023-04-13T00:03:58.654Z,29.90
2023-04-13T00:05:03.589Z,27.80
2023-04-13T00:06:10.806Z,26.80
2023-04-13T00:07:17.031Z,25.10
2023-04-13T00:08:23.181Z,29.20
2023-04-13T00:09:26.400Z,28.20
2023-04-13T00:10:31.520Z,26.80
2023-04-13T00:11:34.430Z,29.70
2023-04-13T00:12:38.638Z,27.50
2023-04-13T00:13:43.036Z,30.40
2023-04-13T00:14:46.113Z,25.30
2023-04-13T00:15:48.901Z,27.60
2023-04-13T00:16:52.128Z,26.70
2023-04-13T00:17:55.013Z,24.50
2023-04-13T00:18:57.933Z,28.30
2023-04-13T00:20:00.971Z,28.20
2023-04-13T00:21:03.986Z,26.60
2023-04-13T00:22:09.815Z,28.10
2023-04-13T00:23:12.751Z,28.10
2023-04-13T00:24:16.134Z,27.50
2023-04-13T00:25:19.047Z,28.10
2023-04-13T00:26:22.731Z,30.60
2023-04-13T00:27:27.617Z,32.80
2023-04-13T00:28:30.582Z,27.70
2023-04-13T00:29:35.746Z,32.00
2023-04-13T00:30:39.352Z,27.20
2023-04-13T00:31:42.255Z,25.90
2023-04-13T00:32:46.047Z,25.80
2023-04-13T00:33:48.915Z,30.50
2023-04-13T00:34:52.119Z,28.90
2023-04-13T00:35:55.074Z,26.20
2023-04-13T00:36:57.914Z,27.50
2023-04-13T00:38:02.983Z,28.20
2023-04-13T00:39:06.507Z,27.00
2023-04-13T00:40:11.211Z,23.80
2023-04-13T00:41:14.084Z,27.90
2023-04-13T00:42:19.390Z,27.00
2023-04-13T00:43:22.297Z,23.70
2023-04-13T00:44:25.650Z,26.50
2023-04-13T00:45:29.053Z,25.00
2023-04-13T00:46:31.908Z,28.50
2023-04-13T00:47:37.308Z,27.80
2023-04-13T00:48:40.205Z,31.00
2023-04-13T00:49:43.610Z,33.70
2023-04-13T00:50:46.932Z,32.00
2023-04-13T00:51:51.055Z,30.30
2023-04-13T00:52:54.081Z,28.90
2023-04-13T00:53:59.389Z,28.00
2023-04-13T00:55:06.649Z,28.00
2023-04-13T00:56:11.031Z,26.00
2023-04-13T00:57:16.428Z,25.70
2023-04-13T00:58:19.750Z,26.80
2023-04-13T00:59:23.659Z,30.70
2023-04-13T01:00:28.335Z,26.60
2023-04-13T01:01:31.759Z,27.40
2023-04-13T01:02:35.613Z,29.10
2023-04-13T01:03:40.079Z,31.00
2023-04-13T01:04:45.927Z,27.70
2023-04-13T01:06:11.674Z,33.00
2023-04-13T01:07:53.025Z,32.50
2023-04-13T01:09:08.837Z,30.90
2023-04-13T01:10:26.758Z,33.30
2023-04-13T01:11:39.625Z,33.70
2023-04-13T01:12:56.547Z,33.10
2023-04-13T01:14:17.037Z,32.70
2023-04-13T01:15:21.423Z,31.30
2023-04-13T01:16:30.857Z,32.90
2023-04-13T01:17:38.417Z,31.40
2023-04-13T01:18:43.739Z,31.30
2023-04-13T01:20:02.090Z,30.80
2023-04-13T01:21:13.223Z,30.30
2023-04-13T01:22:16.691Z,29.10
2023-04-13T01:23:46.354Z,33.90
2023-04-13T01:25:18.466Z,31.00
2023-04-13T01:26:22.798Z,27.90
2023-04-13T01:27:42.418Z,32.20
2023-04-13T01:28:47.562Z,31.60
2023-04-13T01:29:52.046Z,29.90
2023-04-13T01:32:35.408Z,26.80
2023-04-13T01:33:42.115Z,26.70
2023-04-13T01:34:46.095Z,25.50
2023-04-13T01:35:50.202Z,27.80
2023-04-13T01:36:53.570Z,27.20
2023-04-13T01:37:59.815Z,25.90
2023-04-13T01:39:05.518Z,30.30
2023-04-13T01:40:12.730Z,26.90
2023-04-13T01:41:20.080Z,26.00
2023-04-13T01:42:23.512Z,26.60
2023-04-13T01:43:27.877Z,25.50
2023-04-13T01:44:45.623Z,29.60
2023-04-13T01:46:05.525Z,26.80
2023-04-13T01:47:18.752Z,25.70
2023-04-13T01:48:56.498Z,29.50
2023-04-13T01:50:29.746Z,26.00
2023-04-13T01:51:51.615Z,28.90
2023-04-13T01:53:08.261Z,25.70
2023-04-13T01:54:15.572Z,28.90
2023-04-13T01:55:23.622Z,27.40
2023-04-13T01:56:29.560Z,27.40
2023-04-13T01:57:40.150Z,29.90
2023-04-13T01:58:49.723Z,29.20
2023-04-13T01:59:52.722Z,26.00
2023-04-13T02:00:56.969Z,28.60
2023-04-13T02:01:59.898Z,27.40
2023-04-13T02:03:09.800Z,29.30
2023-04-13T02:04:14.632Z,27.60
2023-04-13T02:05:19.551Z,28.10
2023-04-13T02:06:23.668Z,26.50
2023-04-13T02:07:27.687Z,26.60
2023-04-13T02:08:32.925Z,28.30
2023-04-13T02:09:36.478Z,31.20
2023-04-13T02:10:40.064Z,26.50
2023-04-13T02:11:44.219Z,29.00
2023-04-13T02:12:47.876Z,30.10
2023-04-13T02:13:51.321Z,27.80
2023-04-13T02:14:56.711Z,28.40
2023-04-13T02:16:00.112Z,28.40
2023-04-13T02:17:02.961Z,27.70
2023-04-13T02:18:07.108Z,26.30
2023-04-13T02:19:11.084Z,26.90
2023-04-13T02:20:14.107Z,28.80
2023-04-13T02:21:18.161Z,25.50
2023-04-13T02:22:22.231Z,27.30
2023-04-13T02:23:25.255Z,26.50
2023-04-13T02:24:30.187Z,27.30
2023-04-13T02:25:33.032Z,25.90
2023-04-13T02:26:37.776Z,26.50
2023-04-13T02:27:41.648Z,28.00
2023-04-13T02:28:46.441Z,25.90
2023-04-13T02:29:52.440Z,25.60
2023-04-13T02:30:55.457Z,27.50
2023-04-13T02:31:58.527Z,27.00
2023-04-13T02:33:01.419Z,25.70
2023-04-13T02:34:05.688Z,26.20
2023-04-13T02:35:10.220Z,25.80
2023-04-13T02:36:13.746Z,26.30
2023-04-13T02:37:25.907Z,29.00
2023-04-13T02:38:28.893Z,27.20
2023-04-13T02:39:35.257Z,26.10
2023-04-13T02:40:38.962Z,26.70
2023-04-13T02:41:43.299Z,25.30
2023-04-13T02:42:49.680Z,25.60
2023-04-13T02:43:52.713Z,27.80
2023-04-13T02:44:58.366Z,28.30
2023-04-13T02:46:01.473Z,25.70
2023-04-13T02:47:09.655Z,26.10
2023-04-13T02:48:12.886Z,25.50
2023-04-13T02:49:15.904Z,27.00
2023-04-13T02:50:32.402Z,28.60
2023-04-13T02:51:39.717Z,27.90
2023-04-13T02:52:46.841Z,25.80
2023-04-13T02:53:50.162Z,25.90
2023-04-13T02:54:54.819Z,27.00
2023-04-13T02:56:00.857Z,29.30
2023-04-13T02:57:03.813Z,26.10
2023-04-13T02:58:09.380Z,26.50
2023-04-13T02:59:13.341Z,28.70
2023-04-13T03:00:16.989Z,26.00
2023-04-13T03:01:25.151Z,26.10
2023-04-13T03:02:30.154Z,25.10
2023-04-13T03:03:33.898Z,27.10
2023-04-13T03:04:38.171Z,29.00
2023-04-13T03:05:41.299Z,26.20
2023-04-13T03:06:47.448Z,26.50
2023-04-13T03:07:50.350Z,28.30
2023-04-13T03:08:54.291Z,31.00
2023-04-13T03:10:01.405Z,31.20
2023-04-13T03:11:06.317Z,29.50
2023-04-13T03:12:09.447Z,28.60
2023-04-13T03:13:13.204Z,30.50
2023-04-13T03:14:22.293Z,35.20
2023-04-13T03:15:32.239Z,29.40
2023-04-13T03:16:35.811Z,32.10
2023-04-13T03:17:44.116Z,34.90
2023-04-13T03:18:51.405Z,33.80
2023-04-13T03:19:54.391Z,37.80
2023-04-13T03:20:58.203Z,36.80
2023-04-13T03:22:04.921Z,36.50
2023-04-13T03:23:08.763Z,32.90
2023-04-13T03:24:12.523Z,31.60
2023-04-13T03:25:15.673Z,29.60
2023-04-13T03:26:18.776Z,29.80
2023-04-13T03:27:22.895Z,28.70
2023-04-13T03:28:26.696Z,31.20
2023-04-13T03:29:29.835Z,26.80
2023-04-13T03:30:32.941Z,28.30
2023-04-13T03:31:36.984Z,31.10
2023-04-13T03:32:40.032Z,28.90
2023-04-13T03:33:43.395Z,29.10
2023-04-13T03:34:46.339Z,31.10
2023-04-13T03:35:49.620Z,26.70
2023-04-13T03:36:59.159Z,27.50
2023-04-13T03:38:02.122Z,27.60
2023-04-13T03:39:23.953Z,26.40
2023-04-13T03:40:27.631Z,28.10
2023-04-13T03:41:31.339Z,29.60
2023-04-13T03:42:34.377Z,27.00
2023-04-13T03:43:37.258Z,25.40
2023-04-13T03:44:42.496Z,27.10
2023-04-13T03:45:45.589Z,26.00
2023-04-13T03:46:50.836Z,27.50
2023-04-13T03:48:03.098Z,27.90
2023-04-13T03:49:09.201Z,24.50
2023-04-13T03:50:12.711Z,26.90
2023-04-13T03:51:16.476Z,27.10
2023-04-13T03:52:27.060Z,26.20
2023-04-13T03:53:37.848Z,25.60
2023-04-13T03:54:41.028Z,25.20
2023-04-13T03:55:43.930Z,25.20
2023-04-13T03:56:46.883Z,26.70
2023-04-13T03:57:50.636Z,25.10
2023-04-13T03:58:57.131Z,27.50
2023-04-13T04:00:02.111Z,24.90
2023-04-13T04:01:16.619Z,27.50
2023-04-13T04:02:22.303Z,28.50
2023-04-13T04:03:25.792Z,25.40
2023-04-13T04:04:34.403Z,28.90
2023-04-13T04:05:40.488Z,24.70
2023-04-13T04:06:43.635Z,25.40
2023-04-13T04:07:48.529Z,23.40
2023-04-13T04:08:52.219Z,26.80
2023-04-13T04:10:05.329Z,27.00
2023-04-13T04:11:08.827Z,26.30
2023-04-13T04:12:14.411Z,24.90
2023-04-13T04:13:18.457Z,25.20
2023-04-13T04:14:25.298Z,27.20
2023-04-13T04:15:36.850Z,26.80
2023-04-13T04:16:41.075Z,23.90
2023-04-13T04:17:46.426Z,25.20
2023-04-13T04:18:51.852Z,24.10
2023-04-13T04:19:55.360Z,24.40
2023-04-13T04:21:02.888Z,26.80
2023-04-13T04:22:09.370Z,25.10
2023-04-13T04:23:16.220Z,25.00
2023-04-13T04:24:27.742Z,24.70
2023-04-13T04:25:33.548Z,26.80
2023-04-13T04:26:38.899Z,25.10
2023-04-13T04:27:41.722Z,26.40
2023-04-13T04:28:44.703Z,28.50
2023-04-13T04:29:52.862Z,25.50
2023-04-13T04:31:01.325Z,24.60
2023-04-13T04:32:05.743Z,24.30
2023-04-13T04:33:08.825Z,29.30
2023-04-13T04:34:13.223Z,26.70
2023-04-13T04:35:17.871Z,24.50
2023-04-13T04:36:26.573Z,26.80
2023-04-13T04:37:37.842Z,27.60
2023-04-13T04:38:47.642Z,30.00
2023-04-13T04:39:50.517Z,28.20
2023-04-13T04:40:57.622Z,28.50
2023-04-13T04:42:04.250Z,27.80
2023-04-13T04:43:07.997Z,29.60
2023-04-13T04:44:16.923Z,28.90
2023-04-13T04:45:21.027Z,28.70
2023-04-13T04:46:26.002Z,25.40
2023-04-13T04:47:32.385Z,26.80
2023-04-13T04:48:51.350Z,25.50
2023-04-13T04:49:57.809Z,27.50
2023-04-13T04:51:00.813Z,26.70
2023-04-13T04:52:12.532Z,24.90
2023-04-13T04:53:16.014Z,27.90
2023-04-13T04:54:19.951Z,26.30
2023-04-13T04:55:22.984Z,28.10
2023-04-13T04:56:26.081Z,25.90
2023-04-13T04:57:29.972Z,28.10
2023-04-13T04:58:33.271Z,27.30
2023-04-13T04:59:36.766Z,26.30
2023-04-13T05:00:40.156Z,30.50
2023-04-13T05:01:50.039Z,25.20
2023-04-13T05:02:53.158Z,24.70
2023-04-13T05:03:56.313Z,26.50
2023-04-13T05:05:07.276Z,27.30
2023-04-13T05:06:10.312Z,23.10
2023-04-13T05:07:17.629Z,23.50
2023-04-13T05:08:20.641Z,23.30
2023-04-13T05:09:24.298Z,24.70
2023-04-13T05:10:30.132Z,26.10
2023-04-13T05:11:34.004Z,24.20
2023-04-13T05:12:38.629Z,23.00
2023-04-13T05:13:41.851Z,25.60
2023-04-13T05:14:51.789Z,23.20
2023-04-13T05:15:55.205Z,24.20
2023-04-13T05:16:58.617Z,23.10
2023-04-13T05:18:08.178Z,27.00
2023-04-13T05:19:12.624Z,23.40
2023-04-13T05:20:28.042Z,26.20
2023-04-13T05:21:41.695Z,24.30
2023-04-13T05:22:44.856Z,23.90
2023-04-13T05:23:48.409Z,25.30
2023-04-13T05:24:51.220Z,25.20
2023-04-13T05:25:56.640Z,25.50
2023-04-13T05:26:59.688Z,25.00
2023-04-13T05:28:02.494Z,27.10
2023-04-13T05:29:06.881Z,25.80
2023-04-13T05:30:12.820Z,25.20
2023-04-13T05:31:16.730Z,27.80
2023-04-13T05:32:21.280Z,26.40
2023-04-13T05:33:25.178Z,27.70
2023-04-13T05:34:31.054Z,24.80
2023-04-13T05:35:44.324Z,24.10
2023-04-13T05:36:47.547Z,24.80
2023-04-13T05:37:51.262Z,25.30
2023-04-13T05:38:59.256Z,25.70
2023-04-13T05:40:09.707Z,23.70
2023-04-13T05:41:13.084Z,26.10
2023-04-13T05:42:16.467Z,29.40
2023-04-13T05:43:23.712Z,23.80
2023-04-13T05:44:27.276Z,29.60
2023-04-13T05:45:30.989Z,27.50
2023-04-13T05:46:39.539Z,26.90
2023-04-13T05:47:42.566Z,26.10
2023-04-13T05:48:48.343Z,27.50
2023-04-13T05:49:52.783Z,25.80
2023-04-13T05:50:58.374Z,24.90
2023-04-13T05:52:03.654Z,25.50
2023-04-13T05:53:14.813Z,26.70
2023-04-13T05:54:22.278Z,25.20
2023-04-13T05:55:27.550Z,29.90
2023-04-13T05:56:35.648Z,30.30
2023-04-13T05:57:38.537Z,30.20
2023-04-13T05:58:44.619Z,27.60
2023-04-13T05:59:59.897Z,25.90
2023-04-13T06:01:16.785Z,28.90
2023-04-13T06:02:20.745Z,27.40
2023-04-13T06:03:25.824Z,31.70
2023-04-13T06:04:28.988Z,27.60
2023-04-13T06:05:33.196Z,26.30
2023-04-13T06:06:36.429Z,25.10
2023-04-13T06:07:45.112Z,28.80
2023-04-13T06:08:48.477Z,27.90
2023-04-13T06:09:52.365Z,26.20
2023-04-13T06:10:55.577Z,28.20
2023-04-13T06:11:58.620Z,28.60
2023-04-13T06:13:01.475Z,32.10
2023-04-13T06:14:04.746Z,25.90
2023-04-13T06:15:09.532Z,27.20
2023-04-13T06:16:13.364Z,28.30
2023-04-13T06:17:16.117Z,30.30
2023-04-13T06:18:18.988Z,27.30
2023-04-13T06:19:22.069Z,28.70
2023-04-13T06:20:24.995Z,29.50
2023-04-13T06:21:30.262Z,31.90
2023-04-13T06:22:33.360Z,25.40
2023-04-13T06:23:37.545Z,27.90
2023-04-13T06:24:46.597Z,28.10
2023-04-13T06:25:50.412Z,27.90
2023-04-13T06:27:00.031Z,32.20
2023-04-13T06:28:04.478Z,30.40
2023-04-13T06:29:11.663Z,32.30
2023-04-13T06:30:20.067Z,28.50
2023-04-13T06:31:27.799Z,30.90
2023-04-13T06:32:32.906Z,29.30
2023-04-13T06:33:36.314Z,33.60
2023-04-13T06:34:39.617Z,27.60
2023-04-13T06:35:42.851Z,25.50
2023-04-13T06:36:46.116Z,27.50
2023-04-13T06:37:50.506Z,27.60
2023-04-13T06:38:59.070Z,27.40
2023-04-13T06:40:15.781Z,27.70
2023-04-13T06:41:25.278Z,28.60
2023-04-13T06:42:28.100Z,30.00
2023-04-13T06:43:37.892Z,33.60
2023-04-13T06:44:53.432Z,29.50
2023-04-13T06:46:00.048Z,25.90
2023-04-13T06:47:05.811Z,28.20
2023-04-13T06:48:08.754Z,28.00
2023-04-13T06:49:13.719Z,29.70
2023-04-13T06:50:17.761Z,26.50
2023-04-13T06:51:21.143Z,27.40
2023-04-13T06:52:23.958Z,30.80
2023-04-13T06:53:27.279Z,29.40
2023-04-13T06:54:30.809Z,27.70
2023-04-13T06:55:38.058Z,27.90
2023-04-13T06:56:41.043Z,27.30
2023-04-13T06:57:44.262Z,30.70
2023-04-13T06:58:47.162Z,25.90
2023-04-13T06:59:51.268Z,27.50
2023-04-13T07:00:54.285Z,29.70
2023-04-13T07:01:57.876Z,31.80
2023-04-13T07:03:01.994Z,26.80
2023-04-13T07:04:07.597Z,26.80
2023-04-13T07:05:11.627Z,26.10
2023-04-13T07:06:15.739Z,29.10
2023-04-13T07:07:19.081Z,27.60
2023-04-13T07:08:22.153Z,27.60
2023-04-13T07:09:25.825Z,25.40
2023-04-13T07:10:29.016Z,27.70
2023-04-13T07:11:32.651Z,26.40
2023-04-13T07:12:36.746Z,25.10
2023-04-13T07:13:39.736Z,29.30
2023-04-13T07:14:46.547Z,29.30
2023-04-13T07:15:49.849Z,26.30
2023-04-13T07:16:53.377Z,27.90
2023-04-13T07:17:56.566Z,25.40
2023-04-13T07:19:01.889Z,26.00
2023-04-13T07:20:07.395Z,27.10
2023-04-13T07:21:10.736Z,28.70
2023-04-13T07:22:22.747Z,24.80
2023-04-13T07:23:26.719Z,26.80
2023-04-13T07:24:30.329Z,25.90
2023-04-13T07:25:34.597Z,26.10
2023-04-13T07:26:39.974Z,26.20
2023-04-13T07:27:42.987Z,25.30
2023-04-13T07:28:46.137Z,27.20
2023-04-13T07:29:52.483Z,28.50
2023-04-13T07:30:57.891Z,24.90
2023-04-13T07:32:06.199Z,24.90
2023-04-13T07:33:09.612Z,26.70
2023-04-13T07:34:12.578Z,24.90
2023-04-13T07:35:19.532Z,24.40
2023-04-13T07:36:23.572Z,26.20
2023-04-13T07:37:28.039Z,26.50
2023-04-13T07:38:31.035Z,25.00
2023-04-13T07:39:34.317Z,24.30
2023-04-13T07:40:37.898Z,24.00
2023-04-13T07:41:43.337Z,25.30
2023-04-13T07:42:50.017Z,25.30
2023-04-13T07:43:53.190Z,29.60
2023-04-13T07:44:57.556Z,25.20
2023-04-13T07:46:08.681Z,24.30
2023-04-13T07:47:13.143Z,26.10
2023-04-13T07:48:16.507Z,24.20
2023-04-13T07:49:19.497Z,24.20
2023-04-13T07:50:23.157Z,23.70
2023-04-13T07:51:26.888Z,23.90
2023-04-13T07:52:30.132Z,25.30
2023-04-13T07:53:33.408Z,24.30
2023-04-13T07:54:36.496Z,24.10
2023-04-13T07:55:40.106Z,24.10
2023-04-13T07:56:43.182Z,26.90
2023-04-13T07:57:46.308Z,23.40
2023-04-13T07:58:51.116Z,23.10
2023-04-13T07:59:54.321Z,23.00
2023-04-13T08:00:57.401Z,23.60
2023-04-13T08:02:00.942Z,23.20
2023-04-13T08:03:04.519Z,25.30
2023-04-13T08:04:08.130Z,23.90
2023-04-13T08:05:12.495Z,25.10
2023-04-13T08:06:16.759Z,25.70
2023-04-13T08:07:22.890Z,24.50
2023-04-13T08:08:26.559Z,24.90
2023-04-13T08:09:36.320Z,25.10
2023-04-13T08:10:39.879Z,23.30
2023-04-13T08:11:43.324Z,23.30
2023-04-13T08:12:46.750Z,22.90
2023-04-13T08:13:52.194Z,23.70
2023-04-13T08:14:55.161Z,22.80
2023-04-13T08:16:00.248Z,24.00
2023-04-13T08:17:07.107Z,25.20
2023-04-13T08:18:10.594Z,23.00
2023-04-13T08:19:13.714Z,22.50
2023-04-13T08:20:21.349Z,20.90
2023-04-13T08:21:26.436Z,21.50
2023-04-13T08:22:29.300Z,19.50
2023-04-13T08:23:32.802Z,20.20
2023-04-13T08:24:35.905Z,21.20
2023-04-13T08:25:41.716Z,20.40
2023-04-13T08:26:45.630Z,19.70
2023-04-13T08:27:49.096Z,21.30
2023-04-13T08:28:53.121Z,21.90
2023-04-13T08:29:57.008Z,22.20
2023-04-13T08:31:00.152Z,21.40
2023-04-13T08:32:03.440Z,20.20
2023-04-13T08:33:06.981Z,20.30
2023-04-13T08:34:10.851Z,19.80
2023-04-13T08:35:13.783Z,18.50
2023-04-13T08:36:17.615Z,19.40
2023-04-13T08:37:24.628Z,20.40
2023-04-13T08:38:28.299Z,20.40
2023-04-13T08:39:31.463Z,20.90
2023-04-13T08:40:38.906Z,22.10
2023-04-13T08:41:45.735Z,21.70
2023-04-13T08:42:49.160Z,20.00
2023-04-13T08:43:52.731Z,18.80
2023-04-13T08:45:01.046Z,21.30
2023-04-13T08:46:07.949Z,21.50
2023-04-13T08:47:11.935Z,20.70
2023-04-13T08:48:15.849Z,20.00
2023-04-13T08:49:18.865Z,20.60
2023-04-13T08:50:40.486Z,19.50
2023-04-13T08:51:45.983Z,20.00
2023-04-13T08:52:49.889Z,20.50
2023-04-13T08:53:58.967Z,19.60
2023-04-13T08:55:06.020Z,20.10
2023-04-13T08:56:10.640Z,18.30
2023-04-13T08:57:15.055Z,18.30
2023-04-13T08:58:22.918Z,19.10
2023-04-13T08:59:29.154Z,19.40
2023-04-13T09:00:32.654Z,18.10
2023-04-13T09:01:39.341Z,19.50
2023-04-13T09:03:00.438Z,18.50
2023-04-13T09:04:13.852Z,18.80
2023-04-13T09:05:21.115Z,17.70
2023-04-13T09:06:33.233Z,18.00
2023-04-13T09:07:37.022Z,18.30
2023-04-13T09:08:46.367Z,18.90
2023-04-13T09:09:51.410Z,18.30
2023-04-13T09:10:57.160Z,18.70
2023-04-13T09:12:00.043Z,17.40
2023-04-13T09:13:03.142Z,18.70
2023-04-13T09:14:07.010Z,19.30
2023-04-13T09:15:17.378Z,18.00
2023-04-13T09:16:43.360Z,17.70
2023-04-13T09:17:53.570Z,17.70
2023-04-13T09:18:58.261Z,16.30
2023-04-13T09:20:23.546Z,16.50
2023-04-13T09:21:43.218Z,15.40
2023-04-13T09:22:46.567Z,16.70
2023-04-13T09:23:57.470Z,17.10
2023-04-13T09:25:07.349Z,17.60
2023-04-13T09:26:10.691Z,17.90
2023-04-13T09:27:20.233Z,17.00
2023-04-13T09:28:24.056Z,16.10
2023-04-13T09:29:27.204Z,16.60
2023-04-13T09:30:30.011Z,15.90
2023-04-13T09:31:34.788Z,16.50
2023-04-13T09:32:38.218Z,15.90
2023-04-13T09:33:48.786Z,16.20
2023-04-13T09:34:58.228Z,16.50
2023-04-13T09:36:10.484Z,17.60
2023-04-13T09:37:14.266Z,17.60
2023-04-13T09:38:17.262Z,18.10
2023-04-13T09:39:29.543Z,17.60
2023-04-13T09:40:32.998Z,18.50
2023-04-13T09:41:40.603Z,17.80
2023-04-13T09:43:08.099Z,17.00
2023-04-13T09:44:20.688Z,17.00
2023-04-13T09:45:24.123Z,15.40
2023-04-13T09:46:27.708Z,16.10
2023-04-13T09:47:38.662Z,16.10
2023-04-13T09:48:42.095Z,17.70
2023-04-13T09:49:45.085Z,17.10
2023-04-13T09:51:06.823Z,16.60
2023-04-13T09:52:23.370Z,15.20
2023-04-13T09:53:28.795Z,17.20
2023-04-13T09:54:33.298Z,17.00
2023-04-13T09:55:37.409Z,17.60
2023-04-13T09:56:47.531Z,16.70
2023-04-13T09:57:50.659Z,17.20
2023-04-13T09:58:54.371Z,16.30
2023-04-13T10:00:00.955Z,16.60
2023-04-13T10:01:17.363Z,15.00
2023-04-13T10:02:21.921Z,15.10
2023-04-13T10:03:27.099Z,15.10
2023-04-13T10:04:31.199Z,13.20
2023-04-13T10:05:39.261Z,13.30
2023-04-13T10:06:48.023Z,13.60
2023-04-13T10:07:52.000Z,12.70
2023-04-13T10:08:54.971Z,12.90
2023-04-13T10:09:58.344Z,12.20
2023-04-13T10:11:02.326Z,12.30
2023-04-13T10:12:10.851Z,14.20
2023-04-13T10:13:26.299Z,16.40
2023-04-13T10:14:34.561Z,11.90
2023-04-13T10:16:13.319Z,12.90
2023-04-13T10:17:44.292Z,11.70
2023-04-13T10:19:16.197Z,12.10
2023-04-13T10:20:19.877Z,14.70
2023-04-13T10:21:23.428Z,12.20
2023-04-13T10:22:28.668Z,12.10
2023-04-13T10:23:33.575Z,12.40
2023-04-13T10:24:37.686Z,16.60
2023-04-13T10:25:54.404Z,15.20
2023-04-13T10:27:00.498Z,12.40
2023-04-13T10:28:04.269Z,16.20
2023-04-13T10:29:09.289Z,18.90
2023-04-13T10:30:16.986Z,23.40
2023-04-13T10:31:19.969Z,18.80
2023-04-13T10:32:27.586Z,18.70
2023-04-13T10:33:31.659Z,17.30
2023-04-13T10:34:38.205Z,22.10
2023-04-13T10:35:43.499Z,23.10
2023-04-13T10:36:47.131Z,23.50
2023-04-13T10:37:57.784Z,20.90
2023-04-13T10:39:01.556Z,24.80
2023-04-13T10:40:06.953Z,20.70
2023-04-13T10:41:10.286Z,21.00
2023-04-13T10:42:14.522Z,24.20
2023-04-13T10:43:29.724Z,20.60
2023-04-13T10:44:51.447Z,20.10
2023-04-13T10:46:11.284Z,19.40
2023-04-13T10:47:20.434Z,18.10
2023-04-13T10:48:23.408Z,20.00
2023-04-13T10:49:33.083Z,21.30
2023-04-13T10:50:36.232Z,20.80
2023-04-13T10:51:44.390Z,21.00
2023-04-13T10:53:06.814Z,21.00
2023-04-13T10:54:10.983Z,21.40
2023-04-13T10:55:14.812Z,21.90
2023-04-13T10:56:19.185Z,22.40
2023-04-13T10:57:22.117Z,21.60
2023-04-13T10:58:26.938Z,21.60
2023-04-13T10:59:53.564Z,24.60
2023-04-13T11:01:00.298Z,21.00
2023-04-13T11:02:10.165Z,22.40
2023-04-13T11:03:17.752Z,22.70
2023-04-13T11:04:22.533Z,20.70
2023-04-13T11:05:29.688Z,24.10
2023-04-13T11:06:39.536Z,20.10
2023-04-13T11:07:45.330Z,21.80
2023-04-13T11:08:48.785Z,22.10
2023-04-13T11:11:06.679Z,23.30
2023-04-13T11:12:13.007Z,22.80
2023-04-13T11:13:16.607Z,22.60
2023-04-13T11:14:22.856Z,22.80
2023-04-13T11:15:30.419Z,22.70
2023-04-13T11:16:43.909Z,21.10
2023-04-13T11:17:55.635Z,22.10
2023-04-13T11:19:02.892Z,23.80
2023-04-13T11:20:10.915Z,24.00
2023-04-13T11:21:15.772Z,23.50
2023-04-13T11:22:25.833Z,25.60
2023-04-13T11:23:29.119Z,21.30
2023-04-13T11:24:35.927Z,23.20
2023-04-13T11:25:52.453Z,21.20
2023-04-13T11:26:57.764Z,25.10
2023-04-13T11:28:03.463Z,21.50
2023-04-13T11:29:17.165Z,22.50
2023-04-13T11:30:22.414Z,22.10
2023-04-13T11:31:37.702Z,23.00
2023-04-13T11:32:43.523Z,21.50
2023-04-13T11:33:49.398Z,19.90
2023-04-13T11:35:18.685Z,21.90
2023-04-13T11:36:23.956Z,22.20
2023-04-13T11:37:28.568Z,20.50
2023-04-13T11:38:35.065Z,21.50
2023-04-13T11:39:40.062Z,21.40
2023-04-13T11:40:45.497Z,21.10
2023-04-13T11:41:48.488Z,22.30
2023-04-13T11:43:01.836Z,20.50
2023-04-13T11:44:04.853Z,20.30
2023-04-13T11:45:09.832Z,20.60
2023-04-13T11:46:15.364Z,19.40
2023-04-13T11:47:18.870Z,21.30
2023-04-13T11:48:24.899Z,19.90
2023-04-13T11:49:28.417Z,21.70
2023-04-13T11:50:32.290Z,19.90
2023-04-13T11:51:35.793Z,19.80
2023-04-13T11:52:40.948Z,20.50
2023-04-13T11:53:44.207Z,22.10
2023-04-13T11:54:49.300Z,21.20
2023-04-13T11:55:53.863Z,19.00
2023-04-13T11:56:57.692Z,20.10
2023-04-13T11:58:10.028Z,20.00
2023-04-13T11:59:13.396Z,18.90
2023-04-13T12:00:24.727Z,17.90
2023-04-13T12:01:33.764Z,19.00
2023-04-13T12:03:00.019Z,19.00
2023-04-13T12:04:14.482Z,17.50
2023-04-13T12:05:27.284Z,16.80
2023-04-13T12:06:34.023Z,18.90
2023-04-13T12:07:40.859Z,20.40
2023-04-13T12:08:44.167Z,19.30
2023-04-13T12:13:35.870Z,19.00
2023-04-13T12:14:54.908Z,20.70
2023-04-13T12:16:11.932Z,20.40
2023-04-13T12:18:31.043Z,19.10
2023-04-13T12:20:44.208Z,19.70
2023-04-13T12:21:52.814Z,17.50
2023-04-13T12:23:05.920Z,18.20
2023-04-13T12:24:15.601Z,18.80
2023-04-13T12:25:24.426Z,19.80
2023-04-13T12:27:43.453Z,19.60
2023-04-13T12:28:49.603Z,18.10
2023-04-13T12:29:52.692Z,19.40
2023-04-13T12:31:02.194Z,20.70
2023-04-13T12:32:14.864Z,19.10
2023-04-13T12:33:18.356Z,18.30
2023-04-13T12:34:23.119Z,17.30
2023-04-13T12:35:26.219Z,18.00
2023-04-13T12:36:31.604Z,19.40
2023-04-13T12:37:35.314Z,17.80
2023-04-13T12:38:38.391Z,17.50
2023-04-13T12:39:42.229Z,18.30
2023-04-13T12:40:45.516Z,18.10
2023-04-13T12:41:48.365Z,18.90
2023-04-13T12:42:51.835Z,18.90
2023-04-13T12:43:54.921Z,18.20
2023-04-13T12:44:57.934Z,18.30
2023-04-13T12:46:00.884Z,18.70
2023-04-13T12:47:03.913Z,17.80
2023-04-13T12:48:08.974Z,17.50
2023-04-13T12:49:12.006Z,16.60
2023-04-13T12:50:15.075Z,17.70
2023-04-13T12:51:18.113Z,18.40
2023-04-13T12:52:21.261Z,17.50
2023-04-13T12:53:24.127Z,16.20
2023-04-13T12:54:28.671Z,16.20
2023-04-13T12:55:31.780Z,16.10
2023-04-13T12:56:34.923Z,15.90
2023-04-13T12:57:38.168Z,16.00
2023-04-13T12:58:41.363Z,17.40
2023-04-13T12:59:44.470Z,16.90
2023-04-13T13:00:47.634Z,16.10
2023-04-13T13:01:50.858Z,13.70
2023-04-13T13:03:02.898Z,13.90
2023-04-13T13:04:13.623Z,14.50
2023-04-13T13:05:16.649Z,14.40
2023-04-13T13:06:19.894Z,13.80
2023-04-13T13:07:23.720Z,13.90
2023-04-13T13:08:27.206Z,13.50
2023-04-13T13:09:30.356Z,13.90
2023-04-13T13:10:33.489Z,14.60
2023-04-13T13:11:37.057Z,14.50
2023-04-13T13:12:39.912Z,14.30
2023-04-13T13:13:42.782Z,13.40
2023-04-13T13:14:46.013Z,14.40
2023-04-13T13:15:49.131Z,11.50
2023-04-13T13:16:52.972Z,13.20
2023-04-13T13:17:55.972Z,13.70
2023-04-13T13:18:58.801Z,12.70
2023-04-13T13:20:03.171Z,13.40
2023-04-13T13:21:06.497Z,13.40
2023-04-13T13:22:09.538Z,12.60
2023-04-13T13:23:12.668Z,11.90
2023-04-13T13:24:15.750Z,13.70
2023-04-13T13:25:18.749Z,12.10
2023-04-13T13:26:24.496Z,12.00
2023-04-13T13:28:05.285Z,13.80
2023-04-13T13:28:52.447Z,15.30
2023-04-13T13:29:57.409Z,13.70
2023-04-13T13:31:00.753Z,13.70
2023-04-13T13:32:03.820Z,13.80
2023-04-13T13:33:06.914Z,13.90
2023-04-13T13:34:10.452Z,13.10
2023-04-13T13:35:14.872Z,13.10
2023-04-13T13:36:17.920Z,14.50
2023-04-13T13:37:21.549Z,14.50
2023-04-13T13:38:24.433Z,14.00
2023-04-13T13:39:27.412Z,15.00
2023-04-13T13:40:30.625Z,12.90
2023-04-13T13:41:33.994Z,13.60
2023-04-13T13:42:49.958Z,13.20
2023-04-13T13:43:54.118Z,13.70
2023-04-13T13:44:57.012Z,12.60
2023-04-13T13:46:00.046Z,11.60
2023-04-13T13:47:05.157Z,11.70
2023-04-13T13:48:08.267Z,11.60
2023-04-13T13:49:20.640Z,11.50
2023-04-13T13:50:42.975Z,11.10
2023-04-13T13:51:46.419Z,10.20
2023-04-13T13:53:02.924Z,9.70
2023-04-13T13:54:09.098Z,10.10
2023-04-13T13:55:12.029Z,10.60
2023-04-13T13:56:14.903Z,10.60
2023-04-13T13:57:17.819Z,10.10
2023-04-13T13:58:20.818Z,9.30
2023-04-13T13:59:23.962Z,10.60
2023-04-13T14:00:27.174Z,10.80
2023-04-13T14:01:30.339Z,9.60
2023-04-13T14:02:33.345Z,10.70
2023-04-13T14:03:36.561Z,10.10
2023-04-13T14:04:39.750Z,10.50
2023-04-13T14:05:46.117Z,10.00
2023-04-13T14:06:49.896Z,9.40
2023-04-13T14:07:53.036Z,9.40
2023-04-13T14:08:56.539Z,10.20
2023-04-13T14:09:59.522Z,10.00
2023-04-13T14:11:03.246Z,9.80
2023-04-13T14:12:06.998Z,8.90
2023-04-13T14:13:10.264Z,8.70
2023-04-13T14:14:21.360Z,10.20
2023-04-13T14:15:25.738Z,7.90
2023-04-13T14:16:28.876Z,7.80
2023-04-13T14:17:31.982Z,9.30
2023-04-13T14:18:34.991Z,8.40
2023-04-13T14:19:38.083Z,7.00
2023-04-13T14:20:41.760Z,7.60
2023-04-13T14:21:45.013Z,7.10
2023-04-13T14:22:47.887Z,6.70
2023-04-13T14:23:50.900Z,7.30